Time;durP1;ratioP1;P1;durP2;ratioP2;P2;SDS_P1;SDS_P2;PMS_P1;PMS_P2;Temp;Humidity;BMP_temperature;BMP_pressure;BME280_temperature;BME280_humidity;BME280_pressure;Samples;Min_cycle;Max_cycle;Signal;HPM_P1;HPM_P2
2022/06/22 00:01:18;;;;;;;7.90;4.00;;;;;;;16.67;61.10;99638.84;5115741;28;20047;-56
2022/06/22 00:04:03;;;;;;;;;;;;;;;16.65;61.57;99617.09;5091110;28;20043;-56
2022/06/22 00:06:54;;;;;;;6.40;3.85;;;;;;;16.62;61.30;99607.53;5115846;28;19922;-57
2022/06/22 00:09:43;;;;;;;6.45;4.07;;;;;;;16.64;61.40;99586.59;5115633;28;20096;-56
2022/06/22 00:12:30;;;;;;;6.72;4.32;;;;;;;16.63;61.37;99585.72;5116247;28;20054;-56
2022/06/22 00:15:39;;;;;;;7.40;3.80;;;;;;;16.63;61.39;99587.50;5114958;28;20116;-56
2022/06/22 00:18:40;;;;;;;7.25;4.18;;;;;;;16.62;61.47;99602.31;5115298;28;20096;-56
2022/06/22 00:21:40;;;;;;;7.10;3.67;;;;;;;16.62;61.29;99601.47;5115326;28;20089;-56
2022/06/22 00:24:24;;;;;;;7.53;3.90;;;;;;;16.63;61.35;99598.81;5115959;28;20103;-56
2022/06/22 00:27:28;;;;;;;8.27;3.90;;;;;;;16.61;61.24;99597.97;5115805;28;20057;-56
2022/06/22 00:30:19;;;;;;;7.18;3.70;;;;;;;16.59;61.32;99605.84;5115893;28;20050;-55
2022/06/22 00:33:35;;;;;;;7.68;3.88;;;;;;;16.57;61.30;99599.75;5114891;28;20050;-55
2022/06/22 00:36:20;;;;;;;7.95;3.53;;;;;;;16.56;61.00;99587.56;5089391;28;20051;-55
2022/06/22 00:39:23;;;;;;;9.63;4.03;;;;;;;16.56;61.30;99602.41;5115827;28;20547;-55
2022/06/22 00:42:21;;;;;;;9.23;4.63;;;;;;;16.54;61.32;99601.56;5114589;28;20038;-55
2022/06/22 00:45:27;;;;;;;8.48;4.18;;;;;;;16.51;61.25;99596.38;5114704;28;20050;-55
2022/06/22 00:48:20;;;;;;;10.43;4.32;;;;;;;16.47;61.30;99581.63;5113769;28;20120;-55
2022/06/22 00:51:08;;;;;;;7.13;3.75;;;;;;;16.48;61.60;99585.97;5115923;28;20095;-55
2022/06/22 00:54:00;;;;;;;4.68;3.70;;;;;;;16.46;61.44;99583.38;5114386;28;20092;-55
2022/06/22 00:56:54;;;;;;;6.35;3.47;;;;;;;16.43;61.41;99570.34;5114420;28;20078;-55
2022/06/22 00:59:46;;;;;;;11.10;3.90;;;;;;;16.42;61.41;99563.38;5114284;28;20563;-56
2022/06/22 01:02:37;;;;;;;7.03;3.65;;;;;;;16.40;61.56;99568.66;5115162;28;20088;-55
2022/06/22 01:05:31;;;;;;;6.80;4.13;;;;;;;16.41;61.53;99573.00;5113798;28;20042;-55
2022/06/22 01:08:28;;;;;;;7.43;4.00;;;;;;;16.40;61.46;99567.78;5114064;28;20047;-55
2022/06/22 01:14:35;;;;;;;7.65;4.50;;;;;;;16.35;61.47;99585.31;5115381;28;20101;-55
2022/06/22 01:17:27;;;;;;;12.80;4.10;;;;;;;16.35;61.41;99572.22;5114237;28;20151;-55
2022/06/22 01:20:33;;;;;;;7.25;3.85;;;;;;;16.34;61.59;99565.28;5114137;28;20098;-56
2022/06/22 01:23:35;;;;;;;11.88;4.35;;;;;;;16.30;61.62;99569.66;5027414;28;20361;-55
2022/06/22 01:26:25;;;;;;;8.55;4.65;;;;;;;16.27;61.60;99583.66;5027216;28;20549;-56
2022/06/22 01:29:22;;;;;;;7.20;3.80;;;;;;;16.24;61.36;99586.31;5027106;28;20097;-54
2022/06/22 01:32:14;;;;;;;7.28;4.65;;;;;;;16.23;61.57;99587.19;5027137;28;20099;-55
2022/06/22 01:35:16;;;;;;;6.57;3.90;;;;;;;16.24;61.35;99580.22;5012171;28;20130;-55
2022/06/22 01:38:14;;;;;;;9.68;4.88;;;;;;;16.23;61.40;99575.88;5012551;28;20053;-55
2022/06/22 01:41:09;;;;;;;11.52;4.47;;;;;;;16.22;61.71;99582.00;5027168;28;20458;-55
2022/06/22 01:44:01;;;;;;;7.03;3.75;;;;;;;16.21;61.58;99581.13;5012243;28;20187;-55
2022/06/22 01:47:24;;;;;;;8.30;4.53;;;;;;;16.18;61.57;99560.28;5012572;28;20060;-55
2022/06/22 01:50:08;;;;;;;8.27;3.80;;;;;;;16.18;61.76;99560.28;5012171;28;20072;-55
2022/06/22 01:53:07;;;;;;;7.82;4.45;;;;;;;16.17;61.46;99560.28;5027159;28;20056;-55
2022/06/22 01:56:01;;;;;;;10.18;4.68;;;;;;;16.16;61.67;99564.66;5012163;28;20049;-55
2022/06/22 01:59:14;;;;;;;8.43;3.83;;;;;;;16.16;61.74;99566.41;5012067;28;20527;-55
2022/06/22 02:02:08;;;;;;;8.38;4.05;;;;;;;16.13;61.67;99549.88;5012018;28;20041;-55
2022/06/22 02:05:02;;;;;;;6.90;4.03;;;;;;;16.12;61.76;99545.53;5012301;28;20048;-55
2022/06/22 02:07:56;;;;;;;5.88;4.10;;;;;;;16.11;61.71;99535.97;5012144;28;20416;-54
2022/06/22 02:10:59;;;;;;;9.85;4.80;;;;;;;16.12;61.92;99536.81;5027099;28;20122;-55
2022/06/22 02:14:03;;;;;;;9.32;3.97;;;;;;;16.12;61.84;99536.81;5026475;28;20053;-56
2022/06/22 02:16:53;;;;;;;8.00;4.00;;;;;;;16.12;61.90;99542.91;5011779;28;20090;-57
2022/06/22 02:19:40;;;;;;;12.48;4.88;;;;;;;16.13;61.95;99533.34;5011959;28;20092;-56
2022/06/22 02:22:24;;;;;;;12.95;4.78;;;;;;;16.11;61.91;99535.97;5026530;28;20059;-56
2022/06/22 02:25:08;;;;;;;9.05;4.60;;;;;;;16.11;61.77;99535.97;5026407;28;20129;-56
2022/06/22 02:27:52;;;;;;;8.32;4.82;;;;;;;16.12;61.85;99539.44;5026666;28;20045;-56
2022/06/22 02:30:36;;;;;;;7.13;4.65;;;;;;;16.13;61.84;99542.03;5026301;28;20057;-57
2022/06/22 02:33:19;;;;;;;11.38;5.35;;;;;;;16.11;61.85;99542.94;5020194;28;20078;-57
2022/06/22 02:36:04;;;;;;;9.00;4.45;;;;;;;16.10;61.92;99542.09;5012979;28;20056;-56
2022/06/22 02:44:29;;;;;;;7.85;4.60;;;;;;;16.10;61.87;99556.91;5132087;28;20050;-55
2022/06/22 02:47:26;;;;;;;7.47;4.35;;;;;;;16.09;61.91;99552.56;5116658;28;20077;-55
2022/06/22 02:50:44;;;;;;;10.73;5.22;;;;;;;16.09;62.09;99549.94;5116014;28;20100;-55
2022/06/22 02:53:34;;;;;;;8.20;4.93;;;;;;;16.07;62.01;99547.34;5131937;28;20055;-55
2022/06/22 02:56:25;;;;;;;9.68;4.93;;;;;;;16.05;61.93;99540.41;5115887;28;20130;-56
2022/06/22 02:59:10;;;;;;;6.97;5.20;;;;;;;16.05;61.96;99546.50;5116418;28;20112;-55
2022/06/22 03:01:55;;;;;;;11.85;5.20;;;;;;;16.04;61.89;99549.16;5116078;28;20096;-55
2022/06/22 03:04:42;;;;;;;10.45;5.10;;;;;;;16.05;62.13;99548.25;5115866;28;20062;-55
2022/06/22 03:07:28;;;;;;;7.30;4.93;;;;;;;16.03;62.06;99536.97;5116080;28;20046;-57
2022/06/22 03:10:24;;;;;;;8.48;4.88;;;;;;;16.01;62.16;99536.97;5115953;28;20058;-57
2022/06/22 03:13:12;;;;;;;8.68;4.25;;;;;;;16.00;62.01;99534.41;5115553;28;20050;-55
2022/06/22 03:15:56;;;;;;;5.93;5.32;;;;;;;16.00;61.98;99542.25;5115860;28;20050;-56
2022/06/22 03:18:42;;;;;;;7.57;4.90;;;;;;;15.97;62.11;99537.91;5115800;28;20076;-56
2022/06/22 03:21:27;;;;;;;6.95;4.70;;;;;;;15.97;62.05;99537.91;5115422;28;20131;-55
2022/06/22 03:24:20;;;;;;;7.65;4.97;;;;;;;15.94;62.06;99540.59;5115922;28;20138;-57
2022/06/22 03:27:12;;;;;;;6.30;5.30;;;;;;;15.91;62.03;99545.84;5115439;28;20101;-56
2022/06/22 03:30:00;;;;;;;8.73;5.63;;;;;;;15.90;62.09;99539.75;5115779;28;20054;-57
2022/06/22 03:32:54;;;;;;;12.38;5.75;;;;;;;15.89;62.10;99538.00;5115767;28;20196;-57
2022/06/22 03:35:43;;;;;;;7.03;4.88;;;;;;;15.89;62.09;99535.41;5115312;28;20083;-54
2022/06/22 03:38:40;;;;;;;10.30;5.43;;;;;;;15.89;62.01;99529.31;5115418;28;20047;-55
2022/06/22 03:41:30;;;;;;;10.15;5.53;;;;;;;15.88;62.18;99530.22;5115495;28;20046;-55
2022/06/22 03:44:29;;;;;;;8.15;5.50;;;;;;;15.89;62.09;99526.72;5131011;28;20047;-55
2022/06/22 03:47:37;;;;;;;9.10;5.60;;;;;;;15.88;62.17;99519.75;5115494;28;20066;-56
2022/06/22 03:50:32;;;;;;;14.98;6.30;;;;;;;15.88;62.17;99522.38;5114442;28;20083;-56
2022/06/22 03:53:28;;;;;;;7.72;5.22;;;;;;;15.89;62.21;99517.09;5101754;28;20059;-56
2022/06/22 03:56:17;;;;;;;6.93;5.57;;;;;;;15.86;62.33;99504.09;5101175;28;20160;-56
2022/06/22 03:59:04;;;;;;;9.65;5.80;;;;;;;15.86;62.19;99516.28;5101493;28;20080;-56
2022/06/22 04:01:48;;;;;;;7.72;5.70;;;;;;;15.84;62.10;99513.69;5101802;28;20579;-56
2022/06/22 04:04:32;;;;;;;10.82;6.35;;;;;;;15.83;62.20;99517.19;5116767;28;20095;-56
2022/06/22 04:07:17;;;;;;;9.30;5.43;;;;;;;15.83;62.24;99515.41;5116602;28;20096;-57
2022/06/22 04:10:04;;;;;;;9.10;5.78;;;;;;;15.84;62.23;99511.06;5101315;28;20055;-57
2022/06/22 04:12:49;;;;;;;9.50;5.35;;;;;;;15.84;62.22;99508.47;5101549;28;20096;-56
2022/06/22 04:15:45;;;;;;;11.80;6.07;;;;;;;15.83;62.31;99514.56;5101354;28;20088;-57
2022/06/22 04:18:44;;;;;;;7.93;5.97;;;;;;;15.82;62.37;99499.78;5100675;28;20510;-56
2022/06/22 04:21:40;;;;;;;8.48;5.75;;;;;;;15.81;62.44;99500.66;5116208;28;20051;-56
2022/06/22 04:24:33;;;;;;;12.70;5.93;;;;;;;15.79;62.41;99503.31;5100943;28;20413;-56
2022/06/22 04:27:24;;;;;;;10.77;5.97;;;;;;;15.80;62.27;99502.38;5130294;27;20081;-56
2022/06/22 04:30:21;;;;;;;9.30;6.25;;;;;;;15.78;62.29;99504.19;5100653;28;20212;-56
2022/06/22 04:33:14;;;;;;;10.05;5.88;;;;;;;15.80;62.31;99504.16;5129807;27;20456;-56
2022/06/22 04:36:08;;;;;;;8.80;6.10;;;;;;;15.80;62.37;99518.06;5116434;28;20082;-57
2022/06/22 04:38:58;;;;;;;11.93;6.63;;;;;;;15.83;62.35;99511.94;5100488;28;20668;-57
2022/06/22 04:41:46;;;;;;;10.55;6.80;;;;;;;15.85;62.41;99515.44;5116175;28;20088;-56
2022/06/22 04:44:43;;;;;;;9.50;5.85;;;;;;;15.84;62.43;99517.16;5116430;28;20561;-56
2022/06/22 04:47:35;;;;;;;11.85;6.05;;;;;;;15.84;62.62;99527.59;5116186;28;20067;-56
2022/06/22 04:50:20;;;;;;;8.15;5.97;;;;;;;15.84;62.67;99518.91;5100697;28;20054;-56
2022/06/22 04:53:04;;;;;;;;;;;;;;;15.80;62.46;99520.69;5116333;28;20096;-56
2022/06/22 04:55:50;;;;;;;7.63;6.45;;;;;;;15.81;62.41;99516.34;5115351;28;19938;-56
2022/06/22 04:58:48;;;;;;;9.27;6.65;;;;;;;15.80;62.52;99525.91;5100430;28;20452;-56
2022/06/22 05:01:46;;;;;;;7.45;6.32;;;;;;;15.80;62.73;99531.13;5100442;28;20058;-56
2022/06/22 05:04:34;;;;;;;8.13;6.40;;;;;;;15.81;62.54;99521.56;5099938;28;20148;-56
2022/06/22 05:07:35;;;;;;;9.93;7.53;;;;;;;15.82;62.60;99512.84;5100196;28;20050;-56
2022/06/22 05:10:52;;;;;;;10.25;6.85;;;;;;;15.81;62.81;99518.94;5100070;28;20059;-56
2022/06/22 05:13:43;;;;;;;10.15;6.60;;;;;;;15.84;62.80;99524.13;5115465;28;20051;-56
2022/06/22 05:16:32;;;;;;;10.38;6.80;;;;;;;15.84;62.89;99531.97;5099606;28;20092;-56
2022/06/22 05:19:17;;;;;;;10.95;7.18;;;;;;;15.84;62.73;99524.97;5099657;28;20468;-56
2022/06/22 05:22:01;;;;;;;9.65;7.32;;;;;;;15.84;62.80;99530.22;5099714;28;20059;-56
2022/06/22 05:24:53;;;;;;;9.32;6.90;;;;;;;15.82;62.97;99537.19;5114775;28;20093;-57
2022/06/22 05:28:06;;;;;;;9.45;7.15;;;;;;;15.86;62.84;99542.41;5099993;28;20074;-56
2022/06/22 05:31:01;;;;;;;12.07;7.10;;;;;;;15.87;63.00;99554.59;5115185;28;20051;-56
2022/06/22 05:33:49;;;;;;;10.90;6.45;;;;;;;15.89;63.15;99550.22;5115029;28;20042;-56
2022/06/22 05:36:40;;;;;;;12.00;8.02;;;;;;;15.89;63.13;99555.44;5099859;28;20410;-56
2022/06/22 05:39:25;;;;;;;15.60;7.30;;;;;;;15.92;63.08;99553.66;5092875;28;20112;-57
2022/06/22 05:42:11;;;;;;;;;;;;;;;15.91;63.13;99561.53;5095154;28;20502;-56
2022/06/22 05:44:55;;;;;;;12.55;6.70;;;;;;;15.94;63.03;99557.13;5093743;28;20488;-56
2022/06/22 05:47:40;;;;;;;10.35;7.85;;;;;;;15.95;63.29;99574.53;5094515;28;20081;-57
2022/06/22 05:50:34;;;;;;;;;;;;;;;15.94;63.05;99580.63;5094563;28;20054;-56
2022/06/22 05:53:28;;;;;;;15.98;8.32;;;;;;;15.97;63.15;99588.44;5093799;28;19919;-56
2022/06/22 05:56:21;;;;;;;11.05;7.75;;;;;;;16.00;63.13;99582.28;5094376;28;20098;-56
2022/06/22 05:59:29;;;;;;;8.77;6.45;;;;;;;16.02;63.12;99564.00;5093126;28;20472;-56
2022/06/22 06:02:22;;;;;;;9.50;6.95;;;;;;;16.06;63.18;99563.03;5093842;28;20160;-55
2022/06/22 06:05:32;;;;;;;10.98;6.82;;;;;;;16.08;63.16;99558.66;5093219;28;20097;-55
2022/06/22 06:08:23;;;;;;;13.35;6.88;;;;;;;16.11;63.22;99566.47;5093202;28;20468;-55
2022/06/22 06:11:16;;;;;;;12.93;7.00;;;;;;;16.12;63.25;99562.97;5093050;28;20475;-55
2022/06/22 06:14:05;;;;;;;8.32;6.82;;;;;;;16.14;63.51;99559.44;5092591;28;20124;-55
2022/06/22 06:16:54;;;;;;;9.88;7.13;;;;;;;16.15;63.32;99565.53;5094101;28;20059;-55
2022/06/22 06:19:41;;;;;;;11.60;6.68;;;;;;;16.17;63.08;99574.22;5092472;28;20051;-55
2022/06/22 06:22:29;;;;;;;8.05;6.72;;;;;;;16.18;63.13;99567.25;5121694;27;20039;-55
2022/06/22 06:28:39;;;;;;;10.60;6.88;;;;;;;16.23;63.13;99573.28;5093534;28;20153;-55
2022/06/22 06:31:32;;;;;;;13.85;7.57;;;;;;;16.25;63.19;99572.34;5092479;28;20062;-55
2022/06/22 06:34:21;;;;;;;11.32;6.85;;;;;;;16.27;63.22;99569.75;5093020;28;20063;-56
2022/06/22 06:37:19;;;;;;;10.45;6.47;;;;;;;16.29;63.34;99573.16;5092852;28;20097;-55
2022/06/22 06:40:03;;;;;;;9.27;6.75;;;;;;;16.31;63.40;99578.38;5091967;28;20051;-55
2022/06/22 06:43:18;;;;;;;12.90;7.03;;;;;;;16.31;63.33;99571.41;5092623;28;20085;-55
2022/06/22 06:46:10;;;;;;;9.18;6.90;;;;;;;16.33;63.01;99564.41;5092104;28;20047;-55
2022/06/22 06:49:04;;;;;;;8.63;6.60;;;;;;;16.34;63.42;99570.50;5093020;28;20097;-55
2022/06/22 06:52:04;;;;;;;11.52;6.75;;;;;;;16.35;63.22;99574.84;5093627;28;20051;-55
2022/06/22 06:55:13;;;;;;;12.68;6.95;;;;;;;16.36;63.20;99560.84;5092090;28;20043;-55
2022/06/22 06:58:11;;;;;;;12.13;7.35;;;;;;;16.35;63.17;99565.25;5092923;28;20047;-55
2022/06/22 07:00:54;;;;;;;11.00;6.28;;;;;;;16.37;63.28;99557.34;5093012;28;20560;-55
2022/06/22 07:03:40;;;;;;;12.40;6.72;;;;;;;16.38;63.41;99561.69;5093236;28;20097;-55
2022/06/22 07:06:26;;;;;;;11.65;7.13;;;;;;;16.39;63.25;99561.69;5092361;28;20101;-55
2022/06/22 07:09:17;;;;;;;14.05;7.78;;;;;;;16.40;63.29;99552.97;5092996;28;20047;-55
2022/06/22 07:12:18;;;;;;;11.52;6.75;;;;;;;16.43;63.13;99563.34;5092406;28;20094;-56
2022/06/22 07:15:05;;;;;;;10.40;7.38;;;;;;;16.45;63.27;99581.66;5092332;28;20127;-55
2022/06/22 07:17:54;;;;;;;12.93;6.97;;;;;;;16.48;63.11;99591.19;5092070;28;20055;-55
2022/06/22 07:20:44;;;;;;;12.60;7.57;;;;;;;16.49;63.28;99585.97;5091848;28;20153;-56
2022/06/22 07:23:38;;;;;;;12.35;7.03;;;;;;;16.51;63.19;99584.16;5091989;28;20043;-56
2022/06/22 07:26:41;;;;;;;11.55;6.90;;;;;;;16.53;63.26;99581.53;5093351;28;20460;-56
2022/06/22 07:29:37;;;;;;;9.43;6.85;;;;;;;16.54;63.25;99586.72;5097143;28;20514;-56
2022/06/22 07:32:40;;;;;;;10.63;7.20;;;;;;;16.56;63.17;99586.72;5096373;28;20055;-57
2022/06/22 07:35:53;;;;;;;8.45;6.13;;;;;;;16.59;63.05;99589.25;5097053;28;20092;-56
2022/06/22 07:38:58;;;;;;;13.65;7.65;;;;;;;16.60;63.28;99580.53;5084130;28;20090;-56
2022/06/22 07:41:47;;;;;;;11.70;7.63;;;;;;;16.63;63.18;99566.56;5095779;28;20089;-56
2022/06/22 07:44:33;;;;;;;9.18;6.97;;;;;;;16.64;63.17;99553.44;5095502;28;20113;-56
2022/06/22 07:47:40;;;;;;;11.80;6.82;;;;;;;16.66;63.21;99556.91;5095830;28;20049;-56
2022/06/22 07:50:39;;;;;;;11.45;6.85;;;;;;;16.68;63.18;99552.50;5095431;28;20055;-56
2022/06/22 07:53:38;;;;;;;12.55;7.57;;;;;;;16.70;63.20;99558.59;5095608;28;20097;-56
2022/06/22 07:56:31;;;;;;;10.82;7.15;;;;;;;16.72;62.83;99562.03;5095628;28;20059;-56
2022/06/22 07:59:26;;;;;;;11.35;6.68;;;;;;;16.73;62.81;99563.78;5095136;28;20156;-57
2022/06/22 08:02:24;;;;;;;21.42;6.82;;;;;;;16.74;63.16;99552.38;5095283;28;20051;-56
2022/06/22 08:05:16;;;;;;;10.98;6.43;;;;;;;16.77;62.99;99559.34;5095909;28;20419;-56
2022/06/22 08:08:10;;;;;;;14.25;7.97;;;;;;;16.80;63.14;99563.66;5095823;28;20465;-57
2022/06/22 08:11:07;;;;;;;10.82;7.18;;;;;;;16.81;63.09;99568.00;5095142;28;20055;-56
2022/06/22 08:13:56;;;;;;;11.80;7.15;;;;;;;16.82;63.14;99578.41;5094870;28;20457;-56
2022/06/22 08:16:48;;;;;;;10.57;6.35;;;;;;;16.83;62.92;99572.31;5095265;28;20467;-56
2022/06/22 08:19:39;;;;;;;15.25;7.38;;;;;;;16.85;62.78;99572.28;5095083;28;20178;-56
2022/06/22 08:22:26;;;;;;;10.73;6.75;;;;;;;16.88;62.88;99573.09;5095390;28;20514;-57
2022/06/22 08:25:16;;;;;;;11.85;6.15;;;;;;;16.89;62.79;99574.81;5095820;28;20632;-57
2022/06/22 08:28:06;;;;;;;9.73;6.15;;;;;;;16.92;62.91;99575.66;5095700;28;20047;-56
2022/06/22 08:30:53;;;;;;;10.77;5.88;;;;;;;16.93;62.82;99578.25;5095971;28;20047;-57
2022/06/22 08:33:42;;;;;;;8.18;6.25;;;;;;;16.96;63.00;99574.75;5094680;28;20460;-57
2022/06/22 08:36:30;;;;;;;11.95;6.82;;;;;;;16.97;62.88;99564.25;5094608;28;20518;-56
2022/06/22 08:39:31;;;;;;;11.68;6.35;;;;;;;17.00;62.87;99571.16;5099442;28;20063;-57
2022/06/22 08:42:40;;;;;;;10.95;6.18;;;;;;;17.03;62.89;99568.50;5100857;28;20038;-56
2022/06/22 08:45:33;;;;;;;12.02;5.97;;;;;;;17.05;62.74;99561.50;5115422;28;20097;-57
2022/06/22 08:49:01;;;;;;;11.20;6.07;;;;;;;17.09;62.75;99564.91;5115879;28;20513;-57
2022/06/22 08:51:51;;;;;;;9.63;5.75;;;;;;;17.11;62.36;99563.13;5115237;28;20414;-56
2022/06/22 08:54:44;;;;;;;8.75;5.68;;;;;;;17.13;62.79;99562.19;5100546;28;20088;-56
2022/06/22 08:57:42;;;;;;;8.55;6.07;;;;;;;17.14;62.26;99560.47;5115668;28;20470;-56
2022/06/22 09:00:55;;;;;;;7.47;4.85;;;;;;;17.15;62.64;99554.34;5099836;28;20135;-56
2022/06/22 09:04:05;;;;;;;11.50;5.78;;;;;;;17.17;62.53;99549.94;5109622;28;20179;-56
2022/06/22 09:06:58;;;;;;;8.35;5.07;;;;;;;17.20;62.28;99547.25;5115653;28;20047;-57
2022/06/22 09:10:02;;;;;;;11.25;4.45;;;;;;;17.23;62.44;99546.34;5099893;28;20430;-56
2022/06/22 09:13:15;;;;;;;6.20;4.47;;;;;;;17.23;62.22;99536.69;5099691;28;20043;-56
2022/06/22 09:16:27;;;;;;;10.18;5.03;;;;;;;17.25;62.25;99527.06;5099905;28;20046;-56
2022/06/22 09:19:31;;;;;;;8.50;4.35;;;;;;;17.28;62.17;99524.41;5114808;28;20119;-56
2022/06/22 09:22:29;;;;;;;10.15;4.40;;;;;;;17.30;62.29;99527.84;5099859;28;20548;-56
2022/06/22 09:25:43;;;;;;;7.55;4.20;;;;;;;17.34;62.27;99519.03;5099967;28;20043;-57
2022/06/22 09:28:37;;;;;;;7.57;4.20;;;;;;;17.35;62.11;99512.91;5099387;28;20054;-56
2022/06/22 09:31:39;;;;;;;6.30;3.58;;;;;;;17.37;61.91;99525.09;5099606;28;20078;-57
2022/06/22 09:34:26;;;;;;;12.18;5.18;;;;;;;17.39;62.04;99528.53;5099696;28;20463;-56
2022/06/22 09:37:49;;;;;;;9.43;3.97;;;;;;;17.41;61.68;99530.25;5114821;28;20097;-56
2022/06/22 09:40:45;;;;;;;6.57;3.72;;;;;;;17.42;61.60;99525.88;5114326;28;20059;-56
2022/06/22 09:43:41;;;;;;;7.97;3.97;;;;;;;17.44;61.80;99521.47;5099186;28;20061;-55
2022/06/22 09:46:50;;;;;;;8.88;4.53;;;;;;;17.44;61.79;99509.22;5114995;28;20059;-55
2022/06/22 09:49:54;;;;;;;8.30;3.80;;;;;;;17.48;61.74;99515.28;5113995;28;20042;-57
2022/06/22 09:52:46;;;;;;;8.85;3.95;;;;;;;17.52;61.60;99527.41;5114357;28;20092;-57
2022/06/22 09:58:48;;;;;;;6.07;4.07;;;;;;;17.57;61.54;99524.69;5114272;28;20047;-57
2022/06/22 10:01:41;;;;;;;8.38;4.32;;;;;;;17.60;61.52;99522.88;5114385;28;20039;-56
2022/06/22 10:04:47;;;;;;;7.85;4.88;;;;;;;17.64;61.44;99526.28;5099357;28;20047;-57
2022/06/22 10:07:52;;;;;;;12.15;4.97;;;;;;;17.64;61.28;99526.28;5114143;28;20050;-56
2022/06/22 10:11:01;;;;;;;7.57;4.03;;;;;;;17.65;61.60;99526.25;5090654;28;20050;-57
2022/06/22 10:13:51;;;;;;;7.35;4.38;;;;;;;17.66;61.30;99524.50;5099147;28;20394;-56
2022/06/22 10:16:46;;;;;;;7.63;4.00;;;;;;;17.66;61.43;99529.72;5113890;28;20092;-57
2022/06/22 10:19:50;;;;;;;11.57;4.35;;;;;;;17.70;61.36;99535.75;5098502;28;20131;-57
2022/06/22 10:22:57;;;;;;;7.25;4.38;;;;;;;17.69;61.41;99529.69;5099112;28;20047;-57
2022/06/22 10:25:53;;;;;;;8.18;4.95;;;;;;;17.70;61.44;99536.66;5098481;28;20042;-58
2022/06/22 10:29:09;;;;;;;8.88;4.47;;;;;;;17.71;61.32;99535.75;5098793;28;20100;-57
2022/06/22 10:32:14;;;;;;;9.60;5.20;;;;;;;17.74;61.06;99526.94;5098341;28;20139;-58
2022/06/22 10:35:23;;;;;;;10.27;5.20;;;;;;;17.77;61.22;99525.13;5113967;28;20544;-56
2022/06/22 10:38:27;;;;;;;10.13;4.88;;;;;;;17.81;61.23;99534.66;5113521;28;20053;-57
2022/06/22 10:45:10;;;;;;;11.35;5.07;;;;;;;17.82;61.21;99525.03;5113619;28;20327;-55
2022/06/22 10:48:31;;;;;;;7.05;4.97;;;;;;;17.85;60.91;99519.69;5113843;28;20545;-55
2022/06/22 10:51:40;;;;;;;6.22;4.40;;;;;;;17.88;61.28;99514.41;5098894;28;20136;-55
2022/06/22 10:54:52;;;;;;;10.38;5.43;;;;;;;17.90;60.99;99517.00;5114017;28;20100;-55
2022/06/22 10:57:46;;;;;;;9.85;4.78;;;;;;;17.91;61.10;99524.81;5113789;28;20050;-55
2022/06/22 11:01:03;;;;;;;10.88;5.25;;;;;;;17.93;61.05;99517.78;5098177;28;20521;-55
2022/06/22 11:04:04;;;;;;;7.97;4.47;;;;;;;17.96;61.05;99517.72;5102664;28;20120;-56
2022/06/22 11:06:51;;;;;;;11.98;5.57;;;;;;;17.99;60.84;99515.94;5117697;28;20543;-55
2022/06/22 11:09:56;;;;;;;12.88;5.28;;;;;;;18.00;60.85;99517.66;5117269;28;20055;-56
2022/06/22 11:12:53;;;;;;;9.20;5.22;;;;;;;18.01;61.03;99520.28;5102343;28;20532;-55
2022/06/22 11:16:09;;;;;;;10.32;5.10;;;;;;;18.03;60.68;99528.09;5102571;28;20055;-56
2022/06/22 11:19:30;;;;;;;9.30;4.28;;;;;;;18.05;60.98;99523.69;5117517;28;20074;-55
2022/06/22 11:22:35;;;;;;;11.10;5.25;;;;;;;18.07;60.83;99529.75;5117289;28;20127;-55
2022/06/22 11:32:21;;;;;;;8.95;4.30;;;;;;;18.12;60.58;99520.03;5117584;28;20055;-55
2022/06/22 11:35:28;;;;;;;;;;;;;;;18.10;60.52;99506.94;5117812;28;20094;-55
2022/06/22 11:38:40;;;;;;;7.63;4.72;;;;;;;18.15;60.31;99503.34;5116706;28;20359;-56
2022/06/22 11:41:33;;;;;;;12.38;4.60;;;;;;;18.16;60.40;99502.44;5116595;28;20521;-55
2022/06/22 11:48:22;;;;;;;5.55;3.90;;;;;;;18.23;60.33;99497.03;5116725;28;20051;-55
2022/06/22 11:51:38;;;;;;;6.57;4.22;;;;;;;18.26;60.53;99491.72;5101962;28;20195;-56
2022/06/22 11:54:52;;;;;;;6.60;4.13;;;;;;;18.29;60.45;99495.16;5101473;28;20070;-55
2022/06/22 11:58:02;;;;;;;13.77;4.45;;;;;;;18.34;60.42;99485.41;5092714;28;20058;-56
2022/06/22 12:01:15;;;;;;;9.13;5.40;;;;;;;18.35;60.61;99489.75;5101241;28;20051;-55
2022/06/22 12:04:30;;;;;;;7.60;4.75;;;;;;;18.37;60.34;99486.16;5101562;28;20046;-55
2022/06/22 12:07:26;;;;;;;6.32;3.75;;;;;;;18.39;60.55;99479.13;5101582;28;20139;-55
2022/06/22 12:10:22;;;;;;;6.45;3.50;;;;;;;18.42;60.33;99481.69;5101201;28;20536;-57
2022/06/22 12:15:04;;;;;;;8.05;4.05;;;;;;;18.45;60.23;99472.84;5116028;28;20116;-57
2022/06/22 12:17:30;;;;;;;9.18;4.78;;;;;;;18.46;60.28;99460.63;5116060;28;20084;-57
2022/06/22 12:20:25;;;;;;;6.95;3.80;;;;;;;18.49;59.88;99466.63;5115851;28;20116;-57
2022/06/22 12:23:09;;;;;;;10.02;3.63;;;;;;;18.50;59.67;99471.00;5116208;28;20181;-57
2022/06/22 12:26:33;;;;;;;8.07;3.50;;;;;;;18.48;59.80;99454.41;5101229;28;20559;-57
2022/06/22 12:29:55;;;;;;;5.30;2.85;;;;;;;18.50;59.84;99452.63;5101345;28;20571;-57
2022/06/22 12:32:59;;;;;;;12.88;3.65;;;;;;;18.55;59.83;99460.38;5116048;28;20084;-56
2022/06/22 12:36:01;;;;;;;4.38;3.25;;;;;;;18.59;59.43;99461.16;5100801;28;20393;-57
2022/06/22 12:38:51;;;;;;;5.63;2.72;;;;;;;18.58;59.19;99456.81;5116173;28;20127;-56
2022/06/22 12:42:09;;;;;;;7.03;3.33;;;;;;;18.56;59.21;99457.72;5115769;28;20088;-55
2022/06/22 12:45:31;;;;;;;6.10;2.90;;;;;;;18.56;58.87;99457.72;5115727;28;20051;-56
2022/06/22 12:48:31;;;;;;;4.85;2.10;;;;;;;18.57;58.51;99453.31;5068549;28;20181;-55
2022/06/22 12:51:39;;;;;;;5.13;2.42;;;;;;;18.59;58.92;99448.06;5100811;28;20054;-56
2022/06/22 12:54:30;;;;;;;6.22;2.53;;;;;;;18.59;58.27;99448.06;5100061;28;20127;-56
2022/06/22 12:57:30;;;;;;;3.15;2.38;;;;;;;18.58;58.44;99452.41;5100211;28;20096;-56
2022/06/22 13:00:17;;;;;;;5.50;1.98;;;;;;;18.55;57.99;99448.13;5115263;28;20108;-55
2022/06/22 13:03:02;;;;;;;5.05;2.63;;;;;;;18.55;57.95;99453.38;5100501;28;20055;-55
2022/06/22 13:05:47;;;;;;;2.63;2.13;;;;;;;18.56;57.66;99448.97;5100548;28;20108;-55
2022/06/22 13:08:33;;;;;;;6.13;2.95;;;;;;;18.56;57.69;99451.59;5100314;28;20441;-55
2022/06/22 13:11:23;;;;;;;6.53;2.85;;;;;;;18.55;57.93;99449.88;5115729;28;20049;-55
2022/06/22 13:14:31;;;;;;;6.80;2.65;;;;;;;18.56;57.89;99446.34;5099941;28;20046;-55
2022/06/22 13:17:27;;;;;;;4.78;2.95;;;;;;;18.58;57.83;99446.31;5100083;28;20041;-56
2022/06/22 13:20:33;;;;;;;7.20;2.35;;;;;;;18.58;57.84;99446.31;5086118;28;20072;-56
2022/06/22 13:23:35;;;;;;;5.55;2.42;;;;;;;18.59;57.14;99442.81;5114426;28;20517;-56
2022/06/22 13:26:43;;;;;;;4.95;1.98;;;;;;;18.62;57.38;99442.69;5099366;28;20127;-56
2022/06/22 13:30:02;;;;;;;11.10;3.20;;;;;;;18.63;57.42;99441.78;5099989;28;20105;-56
2022/06/22 13:33:07;;;;;;;6.90;2.38;;;;;;;18.67;57.51;99435.56;5099655;28;20043;-56
2022/06/22 13:36:03;;;;;;;5.90;2.65;;;;;;;18.70;57.24;99431.09;5099384;28;20067;-56
2022/06/22 13:39:32;;;;;;;8.40;2.33;;;;;;;18.70;57.22;99425.84;5099133;28;20051;-56
2022/06/22 13:42:27;;;;;;;6.50;2.28;;;;;;;18.71;57.00;99422.31;5099176;28;20050;-56
2022/06/22 13:48:07;;;;;;;7.63;2.90;;;;;;;18.76;57.21;99418.72;5111405;27;20246;-57
2022/06/22 13:51:13;;;;;;;8.18;2.67;;;;;;;18.78;57.02;99423.00;5079416;28;20050;-56
2022/06/22 13:54:15;;;;;;;4.70;2.72;;;;;;;18.78;56.82;99415.13;5111080;28;20097;-55
2022/06/22 13:57:26;;;;;;;7.47;2.90;;;;;;;18.79;57.02;99416.00;5111294;28;20176;-55
2022/06/22 14:00:17;;;;;;;6.53;3.05;;;;;;;18.81;57.00;99415.06;5111399;28;20062;-57
2022/06/22 14:03:20;;;;;;;11.52;3.33;;;;;;;18.85;57.04;99413.19;5109990;28;20046;-58
2022/06/22 14:06:25;;;;;;;6.03;3.25;;;;;;;18.87;57.12;99414.91;5109672;28;20046;-56
2022/06/22 14:09:16;;;;;;;7.07;3.42;;;;;;;18.90;56.80;99413.09;5110882;28;20075;-57
2022/06/22 14:14:41;;;;;;;8.10;3.50;;;;;;;18.87;57.11;99411.38;5132131;27;20354;-55
2022/06/22 14:17:40;;;;;;;4.82;3.28;;;;;;;18.89;56.67;99416.63;5116690;28;20135;-55
2022/06/22 14:20:32;;;;;;;9.90;3.40;;;;;;;18.93;56.98;99412.97;5116640;28;20047;-56
2022/06/22 14:23:19;;;;;;;5.93;3.35;;;;;;;18.95;56.76;99405.94;5116293;28;20062;-55
2022/06/22 14:26:23;;;;;;;5.72;3.30;;;;;;;18.96;56.59;99408.56;5116203;28;20122;-56